PWSweather.com
Personal Weather Stations
Station Observations
PITCARMI1
La Serra, CarmignanoIT 59015

La SerraCarmignanoIT 59015

Lat: 43.804429, Lon: 11.027222

Elevation: 525

Station Type: Davis Vantage Vue

http://www.meteocarmignano.it

High Low Average
Temperature 85.5°F29.7°F 68.3°F20.2°F 76.4°F24.7°F
Dew Point 66.1°F18.9°F 52.9°F11.6°F 63.5°F17.5°F
Winds 13.8 mph WSW22.2 mph WSW Calm Calm 4.2 mph 6.8 mph
Wind Gusts 18.4 mph29.6 mph -- 6.7 mph10.8 mph
Humidity 86% 37% 66%
Pressure 29.80 in1009.10 in 29.73 in1006.80 in -
Precipitation 0.00 in0.00 in - -
Hour Temp Dew Point Humidity Winds Wind Gusts Pressure Precip Precip Rate Daily Precip Total
12:00 AM 73.0°F22.8°C 65.4°F18.6°C 77% 2.3 mph WSW3.7 kmh WSW 2.3 mph3.7 kmh 29.76 in1007.8 mb - 0.00 in0.0 mm 0.00 in0.0 mm
12:30 AM 73.3°F22.9°C 65.3°F18.5°C 76% 2.3 mph WSW3.7 kmh WSW 3.5 mph5.6 kmh 29.76 in1007.8 mb - 0.00 in0.0 mm 0.00 in0.0 mm
01:00 AM 72.4°F22.4°C 65.5°F18.6°C 79% 1.2 mph WSW1.9 kmh WSW 1.2 mph1.9 kmh 29.75 in1007.5 mb - 0.00 in0.0 mm 0.00 in0.0 mm
01:30 AM 71.7°F22.1°C 65.2°F18.4°C 80% 2.3 mph WSW3.7 kmh WSW 3.5 mph5.6 kmh 29.75 in1007.5 mb - 0.00 in0.0 mm 0.00 in0.0 mm
02:00 AM 71.9°F22.2°C 65.4°F18.6°C 80% 1.2 mph SW1.9 kmh SW 1.2 mph1.9 kmh 29.75 in1007.5 mb - 0.00 in0.0 mm 0.00 in0.0 mm
02:30 AM 70.6°F21.4°C 64.8°F18.2°C 82% Calm Calm 1.2 mph1.9 kmh 29.74 in1007.1 mb - 0.00 in0.0 mm 0.00 in0.0 mm
03:00 AM 70.3°F21.3°C 64.5°F18.1°C 82% Calm Calm -- 29.74 in1007.1 mb - 0.00 in0.0 mm 0.00 in0.0 mm
03:30 AM 68.9°F20.5°C 63.9°F17.7°C 84% Calm Calm -- 29.74 in1007.1 mb - 0.00 in0.0 mm 0.00 in0.0 mm
04:00 AM 68.6°F20.3°C 64.2°F17.9°C 86% 1.2 mph SW1.9 kmh SW 1.2 mph1.9 kmh 29.74 in1007.1 mb - 0.00 in0.0 mm 0.00 in0.0 mm
04:30 AM 68.6°F20.3°C 63.9°F17.7°C 85% Calm Calm 1.2 mph1.9 kmh 29.74 in1007.1 mb - 0.00 in0.0 mm 0.00 in0.0 mm
05:00 AM 68.7°F20.4°C 63.7°F17.6°C 84% Calm Calm 1.2 mph1.9 kmh 29.74 in1007.1 mb - 0.00 in0.0 mm 0.00 in0.0 mm
05:30 AM 68.3°F20.2°C 63.6°F17.6°C 85% Calm Calm 1.2 mph1.9 kmh 29.75 in1007.5 mb - 0.00 in0.0 mm 0.00 in0.0 mm
06:00 AM 68.9°F20.5°C 64.2°F17.9°C 85% Calm Calm 1.2 mph1.9 kmh 29.75 in1007.5 mb - 0.00 in0.0 mm 0.00 in0.0 mm
06:30 AM 71.5°F21.9°C 65.0°F18.3°C 80% 1.2 mph SW1.9 kmh SW 3.5 mph5.6 kmh 29.75 in1007.5 mb - 0.00 in0.0 mm 0.00 in0.0 mm
07:00 AM 74.5°F23.6°C 66.1°F18.9°C 75% 1.2 mph S1.9 kmh S 2.3 mph3.7 kmh 29.76 in1007.8 mb - 0.00 in0.0 mm 0.00 in0.0 mm
07:30 AM 76.2°F24.6°C 65.7°F18.7°C 70% 3.5 mph E5.6 kmh E 4.6 mph7.4 kmh 29.76 in1007.8 mb - 0.00 in0.0 mm 0.00 in0.0 mm
08:00 AM 77.9°F25.5°C 65.7°F18.7°C 66% 1.2 mph SW1.9 kmh SW 3.5 mph5.6 kmh 29.77 in1008.1 mb - 0.00 in0.0 mm 0.00 in0.0 mm
08:30 AM 76.8°F24.9°C 63.7°F17.6°C 64% 2.3 mph WSW3.7 kmh WSW 4.6 mph7.4 kmh 29.76 in1007.8 mb - 0.00 in0.0 mm 0.00 in0.0 mm
09:00 AM 76.6°F24.8°C 64.0°F17.8°C 65% 6.9 mph WSW11.1 kmh WSW 9.2 mph14.8 kmh 29.76 in1007.8 mb - 0.00 in0.0 mm 0.00 in0.0 mm
09:30 AM 77.5°F25.3°C 64.3°F17.9°C 64% 5.8 mph WSW9.3 kmh WSW 5.8 mph9.3 kmh 29.77 in1008.1 mb - 0.00 in0.0 mm 0.00 in0.0 mm
10:00 AM 79.4°F26.3°C 65.2°F18.4°C 62% 3.5 mph W5.6 kmh W 5.8 mph9.3 kmh 29.76 in1007.8 mb - 0.00 in0.0 mm 0.00 in0.0 mm
10:30 AM 79.9°F26.6°C 63.8°F17.7°C 58% 12.7 mph WSW20.4 kmh WSW 18.4 mph29.6 kmh 29.76 in1007.8 mb - 0.00 in0.0 mm 0.00 in0.0 mm
11:00 AM 80.3°F26.8°C 62.6°F17.0°C 55% 4.6 mph WNW7.4 kmh WNW 8.1 mph13.0 kmh 29.77 in1008.1 mb - 0.00 in0.0 mm 0.00 in0.0 mm
11:30 AM 81.7°F27.6°C 62.9°F17.2°C 53% 9.2 mph WSW14.8 kmh WSW 15.0 mph24.1 kmh 29.76 in1007.8 mb - 0.00 in0.0 mm 0.00 in0.0 mm
12:00 PM 81.9°F27.7°C 63.1°F17.3°C 53% 4.6 mph WSW7.4 kmh WSW 9.2 mph14.8 kmh 29.76 in1007.8 mb - 0.00 in0.0 mm 0.00 in0.0 mm
12:30 PM 82.4°F28.0°C 63.6°F17.6°C 53% 8.1 mph WSW13.0 kmh WSW 13.8 mph22.2 kmh 29.76 in1007.8 mb - 0.00 in0.0 mm 0.00 in0.0 mm
01:00 PM 82.8°F28.2°C 63.9°F17.7°C 53% 10.4 mph WSW16.7 kmh WSW 15.0 mph24.1 kmh 29.75 in1007.5 mb - 0.00 in0.0 mm 0.00 in0.0 mm
01:30 PM 83.6°F28.7°C 64.7°F18.2°C 53% 5.8 mph W9.3 kmh W 12.7 mph20.4 kmh 29.75 in1007.5 mb - 0.00 in0.0 mm 0.00 in0.0 mm
02:00 PM 84.6°F29.2°C 64.5°F18.1°C 51% 4.6 mph WSW7.4 kmh WSW 4.6 mph7.4 kmh 29.75 in1007.5 mb - 0.00 in0.0 mm 0.00 in0.0 mm
02:30 PM 85.5°F29.7°C 64.2°F17.9°C 49% 4.6 mph WSW7.4 kmh WSW 12.7 mph20.4 kmh 29.73 in1006.8 mb - 0.00 in0.0 mm 0.00 in0.0 mm
03:00 PM 85.1°F29.5°C 64.3°F17.9°C 50% 6.9 mph SW11.1 kmh SW 15.0 mph24.1 kmh 29.73 in1006.8 mb - 0.00 in0.0 mm 0.00 in0.0 mm
03:30 PM 85.3°F29.6°C 64.6°F18.1°C 50% 3.5 mph W5.6 kmh W 10.4 mph16.7 kmh 29.73 in1006.8 mb - 0.00 in0.0 mm 0.00 in0.0 mm
04:00 PM 84.2°F29.0°C 63.0°F17.2°C 49% 3.5 mph W5.6 kmh W 4.6 mph7.4 kmh 29.73 in1006.8 mb - 0.00 in0.0 mm 0.00 in0.0 mm
04:30 PM 84.5°F29.2°C 62.1°F16.7°C 47% 10.4 mph WSW16.7 kmh WSW 11.5 mph18.5 kmh 29.73 in1006.8 mb - 0.00 in0.0 mm 0.00 in0.0 mm
05:00 PM 84.7°F29.3°C 61.6°F16.4°C 46% 6.9 mph WSW11.1 kmh WSW 12.7 mph20.4 kmh 29.73 in1006.8 mb - 0.00 in0.0 mm 0.00 in0.0 mm
05:30 PM 82.8°F28.2°C 58.0°F14.4°C 43% 9.2 mph SW14.8 kmh SW 12.7 mph20.4 kmh 29.73 in1006.8 mb - 0.00 in0.0 mm 0.00 in0.0 mm
06:00 PM 81.7°F27.6°C 52.9°F11.6°C 37% 13.8 mph WSW22.2 kmh WSW 16.1 mph25.9 kmh 29.73 in1006.8 mb - 0.00 in0.0 mm 0.00 in0.0 mm
06:30 PM 79.8°F26.6°C 57.7°F14.3°C 47% 10.4 mph WSW16.7 kmh WSW 13.8 mph22.2 kmh 29.75 in1007.5 mb - 0.00 in0.0 mm 0.00 in0.0 mm
07:00 PM 78.6°F25.9°C 60.0°F15.6°C 53% 3.5 mph WSW5.6 kmh WSW 8.1 mph13.0 kmh 29.75 in1007.5 mb - 0.00 in0.0 mm 0.00 in0.0 mm
07:30 PM 75.4°F24.1°C 61.5°F16.4°C 62% 6.9 mph WSW11.1 kmh WSW 12.7 mph20.4 kmh 29.76 in1007.8 mb - 0.00 in0.0 mm 0.00 in0.0 mm
08:00 PM 73.7°F23.2°C 63.3°F17.4°C 70% 6.9 mph WSW11.1 kmh WSW 9.2 mph14.8 kmh 29.77 in1008.1 mb - 0.00 in0.0 mm 0.00 in0.0 mm
08:30 PM 72.6°F22.6°C 63.8°F17.7°C 74% 8.1 mph WSW13.0 kmh WSW 10.4 mph16.7 kmh 29.77 in1008.1 mb - 0.00 in0.0 mm 0.00 in0.0 mm
09:00 PM 72.4°F22.4°C 64.0°F17.8°C 75% Calm Calm 1.2 mph1.9 kmh 29.79 in1008.8 mb - 0.00 in0.0 mm 0.00 in0.0 mm
09:30 PM 71.5°F21.9°C 64.3°F17.9°C 78% 3.5 mph SW5.6 kmh SW 3.5 mph5.6 kmh 29.79 in1008.8 mb - 0.00 in0.0 mm 0.00 in0.0 mm
10:00 PM 70.9°F21.6°C 64.1°F17.8°C 79% 1.2 mph SW1.9 kmh SW 2.3 mph3.7 kmh 29.79 in1008.8 mb - 0.00 in0.0 mm 0.00 in0.0 mm
10:30 PM 70.3°F21.3°C 64.2°F17.9°C 81% 2.3 mph E3.7 kmh E 3.5 mph5.6 kmh 29.80 in1009.1 mb - 0.00 in0.0 mm 0.00 in0.0 mm
11:00 PM 69.9°F21.1°C 64.2°F17.9°C 82% 1.2 mph WSW1.9 kmh WSW 1.2 mph1.9 kmh 29.80 in1009.1 mb - 0.00 in0.0 mm 0.00 in0.0 mm